createdAt,value
2023-01-10T00:01:34.999Z,100207.38
2023-01-10T00:04:21.853Z,100212.66
2023-01-10T00:07:08.511Z,100213.56
2023-01-10T00:09:56.642Z,100218.69
2023-01-10T00:13:00.888Z,100226.91
2023-01-10T00:15:49.718Z,100238.16
2023-01-10T00:18:36.528Z,100243.25
2023-01-10T00:21:23.713Z,100247.69
2023-01-10T00:24:18.945Z,100251.91
2023-01-10T00:27:06.965Z,100247.84
2023-01-10T00:29:54.033Z,100246.94
2023-01-10T00:32:42.262Z,100250.47
2023-01-10T00:35:29.005Z,100243.00
2023-01-10T00:38:16.146Z,100235.16
2023-01-10T00:41:02.710Z,100249.44
2023-01-10T00:43:58.714Z,100251.06
2023-01-10T00:46:45.378Z,100249.56
2023-01-10T00:49:32.254Z,100246.22
2023-01-10T00:52:18.988Z,100248.81
2023-01-10T00:55:06.879Z,100254.03
2023-01-10T00:57:53.904Z,100265.50
2023-01-10T01:00:42.105Z,100265.38
2023-01-10T01:03:28.612Z,100265.09
2023-01-10T01:06:15.428Z,100274.94
2023-01-10T01:09:02.198Z,100271.66
2023-01-10T01:11:49.540Z,100279.97
2023-01-10T01:14:36.201Z,100292.41
2023-01-10T01:17:24.231Z,100289.72
2023-01-10T01:20:12.077Z,100303.81
2023-01-10T01:22:58.797Z,100316.28
2023-01-10T01:25:45.427Z,100320.63
2023-01-10T01:28:32.283Z,100330.22
2023-01-10T01:31:19.118Z,100328.31
2023-01-10T01:34:07.538Z,100349.22
2023-01-10T01:36:57.059Z,100352.06
2023-01-10T01:39:44.602Z,100357.22
2023-01-10T01:42:33.436Z,100371.22
2023-01-10T01:45:41.631Z,100367.81
2023-01-10T01:48:37.653Z,100381.78
2023-01-10T01:51:29.613Z,100382.53
2023-01-10T01:54:17.226Z,100384.16
2023-01-10T01:57:08.271Z,100382.41
2023-01-10T01:59:57.086Z,100386.72
2023-01-10T02:03:01.764Z,100387.63
2023-01-10T02:05:49.840Z,100390.41
2023-01-10T02:08:43.067Z,100390.50
2023-01-10T02:11:31.273Z,100396.81
2023-01-10T02:14:18.759Z,100398.47
2023-01-10T02:17:05.830Z,100415.19
2023-01-10T02:19:55.434Z,100423.94
2023-01-10T02:23:12.447Z,100422.75
2023-01-10T02:26:27.029Z,100430.00
2023-01-10T02:29:35.272Z,100428.09
2023-01-10T02:32:43.474Z,100432.56
2023-01-10T02:35:47.035Z,100431.91
2023-01-10T02:38:57.179Z,100441.59
2023-01-10T02:41:49.680Z,100446.63
2023-01-10T02:44:43.608Z,100443.38
2023-01-10T02:47:37.873Z,100457.44
2023-01-10T02:50:31.616Z,100454.66
2023-01-10T02:53:21.782Z,100448.81
2023-01-10T02:56:40.134Z,100443.91
2023-01-10T03:00:00.198Z,100461.22
2023-01-10T03:02:58.649Z,100458.53
2023-01-10T03:05:56.601Z,100468.38
2023-01-10T03:08:52.103Z,100473.47
2023-01-10T03:11:43.182Z,100476.22
2023-01-10T03:14:31.368Z,100481.34
2023-01-10T03:17:20.599Z,100488.19
2023-01-10T03:20:10.061Z,100499.41
2023-01-10T03:22:57.277Z,100506.53
2023-01-10T03:25:45.939Z,100516.44
2023-01-10T03:28:39.278Z,100531.34
2023-01-10T03:31:31.791Z,100531.50
2023-01-10T03:34:18.603Z,100536.56
2023-01-10T03:37:14.366Z,100546.25
2023-01-10T03:40:09.555Z,100550.69
2023-01-10T03:43:19.212Z,100557.66
2023-01-10T03:46:10.222Z,100557.66
2023-01-10T03:48:59.462Z,100575.94
2023-01-10T03:51:46.289Z,100570.69
2023-01-10T03:54:34.386Z,100572.59
2023-01-10T03:57:25.047Z,100563.06
2023-01-10T04:00:14.252Z,100569.16
2023-01-10T04:03:01.112Z,100584.41
2023-01-10T04:05:47.825Z,100578.38
2023-01-10T04:08:34.568Z,100588.31
2023-01-10T04:11:22.868Z,100604.28
2023-01-10T04:14:09.572Z,100614.09
2023-01-10T04:16:57.113Z,100617.59
2023-01-10T04:19:44.278Z,100633.22
2023-01-10T04:22:30.723Z,100630.59
2023-01-10T04:25:17.534Z,100640.13
2023-01-10T04:28:05.888Z,100638.38
2023-01-10T04:30:52.524Z,100643.69
2023-01-10T04:33:41.011Z,100653.97
2023-01-10T04:36:27.982Z,100655.81
2023-01-10T04:39:14.976Z,100662.09
2023-01-10T04:42:01.668Z,100675.19
2023-01-10T04:44:49.672Z,100675.97
2023-01-10T04:47:36.387Z,100687.44
2023-01-10T04:50:23.865Z,100684.00
2023-01-10T04:53:10.343Z,100693.38
2023-01-10T04:56:03.627Z,100706.41
2023-01-10T04:58:53.785Z,100704.53
2023-01-10T05:01:42.007Z,100712.50
2023-01-10T05:04:29.155Z,100725.63
2023-01-10T05:07:15.988Z,100738.66
2023-01-10T05:10:02.803Z,100743.94
2023-01-10T05:12:50.209Z,100744.81
2023-01-10T05:15:36.860Z,100745.66
2023-01-10T05:18:25.348Z,100742.22
2023-01-10T05:21:14.516Z,100753.53
2023-01-10T05:24:01.099Z,100760.47
2023-01-10T05:26:47.787Z,100758.75
2023-01-10T05:29:36.403Z,100767.47
2023-01-10T05:32:23.270Z,100771.88
2023-01-10T05:35:12.286Z,100778.72
2023-01-10T05:37:58.923Z,100798.13
2023-01-10T05:40:45.727Z,100790.22
2023-01-10T05:43:33.222Z,100790.13
2023-01-10T05:46:19.901Z,100790.06
2023-01-10T05:49:06.893Z,100792.03
2023-01-10T05:51:55.050Z,100801.69
2023-01-10T05:54:41.545Z,100808.69
2023-01-10T05:57:28.338Z,100812.28
2023-01-10T06:00:17.770Z,100823.66
2023-01-10T06:03:04.820Z,100829.84
2023-01-10T06:05:51.213Z,100835.91
2023-01-10T06:08:39.326Z,100839.41
2023-01-10T06:11:30.149Z,100848.97
2023-01-10T06:14:19.527Z,100855.16
2023-01-10T06:17:10.206Z,100864.88
2023-01-10T06:19:56.940Z,100864.78
2023-01-10T06:22:44.658Z,100863.91
2023-01-10T06:25:33.684Z,100878.66
2023-01-10T06:28:20.578Z,100888.28
2023-01-10T06:31:07.275Z,100881.25
2023-01-10T06:33:54.638Z,100891.81
2023-01-10T06:36:41.305Z,100895.41
2023-01-10T06:39:27.989Z,100899.88
2023-01-10T06:42:16.149Z,100900.81
2023-01-10T06:45:03.401Z,100908.75
2023-01-10T06:47:50.260Z,100912.19
2023-01-10T06:50:37.026Z,100921.81
2023-01-10T06:53:23.894Z,100925.19
2023-01-10T06:56:11.260Z,100926.06
2023-01-10T06:58:59.259Z,100933.81
2023-01-10T07:01:46.160Z,100932.09
2023-01-10T07:04:33.283Z,100948.81
2023-01-10T07:07:19.867Z,100947.16
2023-01-10T07:10:08.086Z,100951.50
2023-01-10T07:12:55.846Z,100962.91
2023-01-10T07:15:49.863Z,100964.66
2023-01-10T07:18:38.088Z,100975.00
2023-01-10T07:21:25.052Z,100974.16
2023-01-10T07:24:11.487Z,100983.66
2023-01-10T07:26:58.339Z,100988.19
2023-01-10T07:29:44.920Z,100994.25
2023-01-10T07:32:33.024Z,100998.69
2023-01-10T07:35:19.818Z,101003.19
2023-01-10T07:41:15.274Z,101031.19
2023-01-10T07:44:01.925Z,101036.41
2023-01-10T07:46:48.689Z,101041.75
2023-01-10T07:49:36.918Z,101042.44
2023-01-10T07:52:23.616Z,101049.69
2023-01-10T07:55:10.912Z,101061.91
2023-01-10T07:57:57.662Z,101061.09
2023-01-10T08:00:46.186Z,101062.88
2023-01-10T08:03:34.006Z,101065.31
2023-01-10T08:06:22.096Z,101066.19
2023-01-10T08:09:08.869Z,101069.75
2023-01-10T08:11:55.590Z,101075.78
2023-01-10T08:14:42.359Z,101073.19
2023-01-10T08:17:29.278Z,101080.97
2023-01-10T08:20:16.280Z,101092.31
2023-01-10T08:23:04.693Z,101090.63
2023-01-10T08:25:51.920Z,101053.00
2023-01-10T08:28:39.405Z,101096.44
2023-01-10T08:31:26.695Z,101097.28
2023-01-10T08:34:14.349Z,101096.38
2023-01-10T08:37:01.357Z,101103.19
2023-01-10T08:39:49.421Z,101118.22
2023-01-10T08:42:36.159Z,101120.06
2023-01-10T08:45:22.994Z,101120.97
2023-01-10T08:48:11.527Z,101123.63
2023-01-10T08:50:58.003Z,101122.75
2023-01-10T08:53:45.453Z,101134.19
2023-01-10T08:56:33.645Z,101135.00
2023-01-10T08:59:20.428Z,101136.66
2023-01-10T09:02:13.282Z,101140.09
2023-01-10T09:04:59.951Z,101137.44
2023-01-10T09:07:46.828Z,101145.34
2023-01-10T09:10:33.856Z,101147.97
2023-01-10T09:13:21.794Z,101141.81
2023-01-10T09:16:08.971Z,101154.88
2023-01-10T09:18:56.366Z,101154.03
2023-01-10T09:21:43.036Z,101160.19
2023-01-10T09:24:29.707Z,101159.41
2023-01-10T09:27:16.578Z,101165.38
2023-01-10T09:30:06.008Z,101179.31
2023-01-10T09:32:53.200Z,101173.25
2023-01-10T09:35:42.292Z,101177.59
2023-01-10T09:38:29.263Z,101180.22
2023-01-10T09:41:29.251Z,101180.13
2023-01-10T09:44:22.404Z,101181.97
2023-01-10T09:47:22.852Z,101184.63
2023-01-10T09:50:21.962Z,101190.03
2023-01-10T09:53:14.166Z,101195.16
2023-01-10T09:56:02.150Z,101200.31
2023-01-10T09:58:50.185Z,101201.88
2023-01-10T10:01:37.463Z,101197.56
2023-01-10T10:04:31.786Z,101195.91
2023-01-10T10:07:18.570Z,101203.81
2023-01-10T10:10:07.002Z,101206.41
2023-01-10T10:13:26.859Z,101205.38
2023-01-10T10:16:25.097Z,101209.72
2023-01-10T10:19:23.255Z,101199.28
2023-01-10T10:22:19.813Z,101201.81
2023-01-10T10:25:20.275Z,101206.22
2023-01-10T10:28:22.444Z,101205.41
2023-01-10T10:31:17.153Z,101216.00
2023-01-10T10:34:13.463Z,101218.53
2023-01-10T10:37:05.701Z,101216.00
2023-01-10T10:39:58.084Z,101222.75
2023-01-10T10:42:48.420Z,101223.63
2023-01-10T10:45:40.768Z,101230.78
2023-01-10T10:48:31.352Z,101226.41
2023-01-10T10:51:22.859Z,101231.75
2023-01-10T10:54:13.936Z,101239.72
2023-01-10T10:57:02.029Z,101234.28
2023-01-10T10:59:49.974Z,101246.38
2023-01-10T11:02:44.612Z,101244.66
2023-01-10T11:05:37.044Z,101242.88
2023-01-10T11:08:25.250Z,101246.34
2023-01-10T11:11:19.974Z,101260.56
2023-01-10T11:14:09.743Z,101265.00
2023-01-10T11:17:21.699Z,101266.75
2023-01-10T11:20:16.714Z,101259.69
2023-01-10T11:23:04.397Z,101257.88
2023-01-10T11:25:51.684Z,101264.09
2023-01-10T11:28:39.439Z,101252.53
2023-01-10T11:31:32.423Z,101246.34
2023-01-10T11:34:24.156Z,101248.91
2023-01-10T11:37:20.929Z,101262.19
2023-01-10T11:40:24.259Z,101264.75
2023-01-10T11:43:26.235Z,101260.97
2023-01-10T11:46:16.875Z,101264.47
2023-01-10T11:49:08.945Z,101268.03
2023-01-10T11:52:00.884Z,101273.31
2023-01-10T11:54:48.854Z,101271.84
2023-01-10T11:57:35.551Z,101280.00
2023-01-10T12:00:23.570Z,101283.81
2023-01-10T12:03:21.076Z,101285.47
2023-01-10T12:06:15.871Z,101247.13
2023-01-10T12:09:02.691Z,101287.22
2023-01-10T12:12:03.177Z,101291.66
2023-01-10T12:14:50.762Z,101290.66
2023-01-10T12:17:38.907Z,101289.84
2023-01-10T12:20:29.136Z,101290.44
2023-01-10T12:23:21.136Z,101281.56
2023-01-10T12:26:12.196Z,101294.75
2023-01-10T12:29:03.959Z,101291.94
2023-01-10T12:31:52.050Z,101284.09
2023-01-10T12:34:45.895Z,101284.72
2023-01-10T12:37:41.592Z,101289.81
2023-01-10T12:40:45.297Z,101295.03
2023-01-10T12:43:55.457Z,101296.09
2023-01-10T12:47:05.961Z,101251.69
2023-01-10T12:49:59.853Z,101297.13
2023-01-10T12:52:52.911Z,101302.47
2023-01-10T12:55:43.236Z,101309.31
2023-01-10T12:58:40.293Z,101323.28
2023-01-10T13:01:33.271Z,101320.00
2023-01-10T13:04:24.212Z,101320.94
2023-01-10T13:07:13.712Z,101327.88
2023-01-10T13:10:04.530Z,101320.91
2023-01-10T13:12:59.106Z,101318.91
2023-01-10T13:15:52.177Z,101328.53
2023-01-10T13:18:38.952Z,101334.66
2023-01-10T13:21:25.769Z,101345.28
2023-01-10T13:24:22.410Z,101347.00
2023-01-10T13:27:20.853Z,101352.16
2023-01-10T13:30:28.053Z,101350.47
2023-01-10T13:33:23.813Z,101359.38
2023-01-10T13:36:13.571Z,101347.25
2023-01-10T13:39:03.040Z,101347.97
2023-01-10T13:42:40.345Z,101342.59
2023-01-10T13:45:30.031Z,101349.50
2023-01-10T13:48:30.576Z,101351.31
2023-01-10T13:51:19.871Z,101360.41
2023-01-10T13:54:26.582Z,101361.94
2023-01-10T13:57:51.871Z,101361.31
2023-01-10T14:01:08.680Z,101370.00
2023-01-10T14:03:58.290Z,101377.16
2023-01-10T14:06:45.127Z,101380.69
2023-01-10T14:09:45.798Z,101384.03
2023-01-10T14:12:36.601Z,101378.72
2023-01-10T14:15:28.752Z,101368.16
2023-01-10T14:18:23.808Z,101376.25
2023-01-10T14:21:20.336Z,101376.22
2023-01-10T14:24:12.299Z,101364.25
2023-01-10T14:27:01.823Z,101373.75
2023-01-10T14:29:51.471Z,101375.81
2023-01-10T14:32:40.692Z,101369.66
2023-01-10T14:35:34.890Z,101364.38
2023-01-10T14:38:27.275Z,101379.28
2023-01-10T14:41:19.724Z,101374.06
2023-01-10T14:44:12.073Z,101370.56
2023-01-10T14:47:02.868Z,101351.44
2023-01-10T14:49:51.350Z,101370.09
2023-01-10T14:52:43.646Z,101369.19
2023-01-10T14:55:30.029Z,101375.41
2023-01-10T14:58:18.791Z,101380.75
2023-01-10T15:01:06.975Z,101369.41
2023-01-10T15:03:55.481Z,101376.50
2023-01-10T15:06:56.683Z,101377.44
2023-01-10T15:09:50.245Z,101382.72
2023-01-10T15:12:38.447Z,101375.69
2023-01-10T15:15:31.344Z,101385.22
2023-01-10T15:18:33.434Z,101385.97
2023-01-10T15:21:22.287Z,101390.34
2023-01-10T15:24:25.454Z,101382.44
2023-01-10T15:27:16.485Z,101379.78
2023-01-10T15:30:03.212Z,101385.03
2023-01-10T15:32:51.178Z,101388.56
2023-01-10T15:35:37.907Z,101383.44
2023-01-10T15:38:30.394Z,101384.28
2023-01-10T15:41:19.993Z,101385.16
2023-01-10T15:44:36.471Z,101393.13
2023-01-10T15:47:38.856Z,101384.50
2023-01-10T15:50:28.640Z,101398.47
2023-01-10T15:53:15.063Z,101394.19
2023-01-10T15:56:11.850Z,101395.94
2023-01-10T15:59:00.286Z,101347.81
2023-01-10T16:01:57.004Z,101397.69
2023-01-10T16:04:45.266Z,101405.59
2023-01-10T16:07:34.345Z,101403.84
2023-01-10T16:10:24.920Z,101343.44
2023-01-10T16:13:27.529Z,101395.97
2023-01-10T16:16:19.956Z,101393.34
2023-01-10T16:19:07.747Z,101386.31
2023-01-10T16:21:58.805Z,101388.97
2023-01-10T16:24:45.334Z,101381.94
2023-01-10T16:27:32.561Z,101395.09
2023-01-10T16:30:24.636Z,101390.69
2023-01-10T16:33:16.293Z,101390.72
2023-01-10T16:36:15.897Z,101328.59
2023-01-10T16:39:06.896Z,101388.94
2023-01-10T16:42:10.727Z,101388.94
2023-01-10T16:44:57.555Z,101392.44
2023-01-10T16:47:45.884Z,101387.16
2023-01-10T16:50:32.734Z,101391.47
2023-01-10T16:53:22.310Z,101381.00
2023-01-10T16:56:13.953Z,101383.63
2023-01-10T16:59:00.318Z,101384.53
2023-01-10T17:01:51.382Z,101388.91
2023-01-10T17:04:40.037Z,101381.91
2023-01-10T17:07:26.653Z,101384.47
2023-01-10T17:10:14.887Z,101397.59
2023-01-10T17:13:03.339Z,101386.25
2023-01-10T17:15:49.838Z,101384.44
2023-01-10T17:18:39.312Z,101380.94
2023-01-10T17:21:26.834Z,101380.91
2023-01-10T17:24:13.608Z,101378.31
2023-01-10T17:27:01.541Z,101382.69
2023-01-10T17:29:48.326Z,101387.00
2023-01-10T17:32:35.408Z,101387.03
2023-01-10T17:35:26.939Z,101394.97
2023-01-10T17:38:15.650Z,101399.34
2023-01-10T17:41:03.263Z,101399.34
2023-01-10T17:43:51.412Z,101390.56
2023-01-10T17:46:38.021Z,101382.63
2023-01-10T17:49:25.134Z,101345.06
2023-01-10T17:52:11.685Z,101392.28
2023-01-10T17:54:59.562Z,101392.31
2023-01-10T17:57:46.173Z,101396.59
2023-01-10T18:00:34.323Z,101387.84
2023-01-10T18:03:21.164Z,101392.22
2023-01-10T18:06:19.060Z,101388.69
2023-01-10T18:09:09.920Z,101390.41
2023-01-10T18:11:56.721Z,101388.66
2023-01-10T18:14:43.567Z,101389.59
2023-01-10T18:17:32.085Z,101381.69
2023-01-10T18:20:19.001Z,101390.47
2023-01-10T18:23:23.595Z,101383.47
2023-01-10T18:26:12.293Z,101394.88
2023-01-10T18:29:00.353Z,101391.38
2023-01-10T18:31:46.875Z,101386.16
2023-01-10T18:34:35.072Z,101388.88
2023-01-10T18:37:21.832Z,101381.00
2023-01-10T18:40:11.557Z,101374.88
2023-01-10T18:42:59.134Z,101376.66
2023-01-10T18:45:48.569Z,101376.66
2023-01-10T18:48:35.254Z,101372.28
2023-01-10T18:51:24.927Z,101373.16
2023-01-10T18:54:11.655Z,101364.41
2023-01-10T18:56:58.414Z,101357.44
2023-01-10T18:59:45.232Z,101358.31
2023-01-10T19:02:32.637Z,101362.69
2023-01-10T19:05:19.664Z,101364.44
2023-01-10T19:08:08.411Z,101354.84
2023-01-10T19:14:02.445Z,101355.72
2023-01-10T19:16:49.242Z,101357.47
2023-01-10T19:19:35.914Z,101360.06
2023-01-10T19:22:23.687Z,101354.84
2023-01-10T19:25:11.894Z,101348.72
2023-01-10T19:27:58.531Z,101346.09
2023-01-10T19:30:55.340Z,101345.22
2023-01-10T19:33:50.548Z,101346.97
2023-01-10T19:36:37.370Z,101339.97
2023-01-10T19:39:23.977Z,101338.22
2023-01-10T19:42:12.145Z,101326.84
2023-01-10T19:44:58.959Z,101330.34
2023-01-10T19:47:45.693Z,101324.22
2023-01-10T19:50:33.957Z,101328.59
2023-01-10T19:53:24.965Z,101322.47
2023-01-10T19:56:12.083Z,101322.47
2023-01-10T19:59:00.005Z,101323.34
2023-01-10T20:01:47.762Z,101315.47
2023-01-10T20:04:34.346Z,101316.34
2023-01-10T20:07:21.144Z,101312.84
2023-01-10T20:10:08.840Z,101305.84
2023-01-10T20:12:55.423Z,101304.94
2023-01-10T20:15:44.346Z,101298.84
2023-01-10T20:18:31.083Z,101296.22
2023-01-10T20:21:19.177Z,101297.94
2023-01-10T20:24:10.435Z,101302.34
2023-01-10T20:27:00.788Z,101297.09
2023-01-10T20:29:47.462Z,101290.94
2023-01-10T20:32:35.560Z,101286.59
2023-01-10T20:35:22.265Z,101287.47
2023-01-10T20:38:09.563Z,101283.97
2023-01-10T20:40:58.676Z,101283.97
2023-01-10T20:43:46.213Z,101269.97
2023-01-10T20:46:34.192Z,101275.22
2023-01-10T20:49:22.689Z,101269.94
2023-01-10T20:52:10.026Z,101269.06
2023-01-10T20:54:56.660Z,101267.31
2023-01-10T20:57:43.338Z,101272.56
2023-01-10T21:00:30.196Z,101271.69
2023-01-10T21:03:16.980Z,101264.66
2023-01-10T21:06:05.657Z,101229.66
2023-01-10T21:08:52.116Z,101269.06
2023-01-10T21:11:56.612Z,101271.66
2023-01-10T21:14:45.538Z,101265.53
2023-01-10T21:17:32.307Z,101255.94
2023-01-10T21:20:19.767Z,101263.78
2023-01-10T21:23:07.726Z,101253.28
2023-01-10T21:25:55.655Z,101252.38
2023-01-10T21:28:46.773Z,101255.84
2023-01-10T21:31:33.306Z,101254.13
2023-01-10T21:34:20.118Z,101246.28
2023-01-10T21:37:06.904Z,101238.41
2023-01-10T21:39:56.238Z,101235.81
2023-01-10T21:42:44.988Z,101235.81
2023-01-10T21:45:32.512Z,101238.44
2023-01-10T21:48:19.345Z,101230.59
2023-01-10T21:51:06.307Z,101228.84
2023-01-10T21:53:52.954Z,101228.81
2023-01-10T21:56:41.127Z,101225.31
2023-01-10T21:59:27.820Z,101209.59
2023-01-10T22:02:15.342Z,101214.81
2023-01-10T22:05:02.928Z,101215.72
2023-01-10T22:07:49.360Z,101213.97
2023-01-10T22:10:36.116Z,101204.34
2023-01-10T22:13:26.196Z,101194.75
2023-01-10T22:16:13.066Z,101202.63
2023-01-10T22:18:59.637Z,101207.84
2023-01-10T22:21:46.780Z,101191.25
2023-01-10T22:24:34.769Z,101195.63
2023-01-10T22:27:21.230Z,101193.88
2023-01-10T22:30:11.113Z,101169.41
2023-01-10T22:32:58.209Z,101177.28
2023-01-10T22:35:44.853Z,101188.63
2023-01-10T22:38:32.977Z,101186.03
2023-01-10T22:41:21.074Z,101177.28
2023-01-10T22:44:09.014Z,101174.66
2023-01-10T22:46:56.963Z,101178.16
2023-01-10T22:49:43.744Z,101172.91
2023-01-10T22:52:30.571Z,101154.56
2023-01-10T22:55:18.017Z,101085.50
2023-01-10T22:58:04.460Z,101147.56
2023-01-10T23:00:51.456Z,101151.03
2023-01-10T23:03:39.630Z,101151.06
2023-01-10T23:06:26.539Z,101138.84
2023-01-10T23:09:13.324Z,101137.97
2023-01-10T23:11:59.967Z,101136.19
2023-01-10T23:14:46.849Z,101139.66
2023-01-10T23:17:33.460Z,101130.06
2023-01-10T23:20:22.000Z,101123.09
2023-01-10T23:23:08.723Z,101114.31
2023-01-10T23:26:02.484Z,101121.31
2023-01-10T23:28:51.446Z,101120.44
2023-01-10T23:31:38.180Z,101113.44
2023-01-10T23:34:25.343Z,101122.19
2023-01-10T23:37:14.535Z,101107.31
2023-01-10T23:40:01.285Z,101109.06
2023-01-10T23:42:48.085Z,101084.56
2023-01-10T23:45:35.838Z,101084.56
2023-01-10T23:48:23.120Z,101052.25
2023-01-10T23:51:11.505Z,101082.81
2023-01-10T23:53:59.668Z,101078.44
2023-01-10T23:56:46.651Z,101059.22
2023-01-10T23:59:33.542Z,101061.84
